sensor_id;sensor_type;location;lat;lon;timestamp;temperature;humidity
21033;DHT22;10675;47.976;7.824;2024-03-25T00:02:00;6.50;99.90
21033;DHT22;10675;47.976;7.824;2024-03-25T00:04:26;6.50;99.90
21033;DHT22;10675;47.976;7.824;2024-03-25T00:06:51;6.40;99.90
21033;DHT22;10675;47.976;7.824;2024-03-25T00:09:18;6.40;99.90
21033;DHT22;10675;47.976;7.824;2024-03-25T00:11:43;6.40;99.90
21033;DHT22;10675;47.976;7.824;2024-03-25T00:14:09;6.30;99.90
21033;DHT22;10675;47.976;7.824;2024-03-25T00:16:35;6.30;99.90
21033;DHT22;10675;47.976;7.824;2024-03-25T00:19:01;6.30;99.90
21033;DHT22;10675;47.976;7.824;2024-03-25T00:21:27;6.20;99.90
21033;DHT22;10675;47.976;7.824;2024-03-25T00:23:52;6.20;99.90
21033;DHT22;10675;47.976;7.824;2024-03-25T00:26:18;6.20;99.90
21033;DHT22;10675;47.976;7.824;2024-03-25T00:28:43;6.10;99.90
21033;DHT22;10675;47.976;7.824;2024-03-25T00:31:09;6.10;99.90
21033;DHT22;10675;47.976;7.824;2024-03-25T00:33:35;6.20;99.90
21033;DHT22;10675;47.976;7.824;2024-03-25T00:36:00;6.20;99.90
21033;DHT22;10675;47.976;7.824;2024-03-25T00:38:26;6.20;99.90
21033;DHT22;10675;47.976;7.824;2024-03-25T00:40:52;6.20;99.90
21033;DHT22;10675;47.976;7.824;2024-03-25T00:43:17;6.20;99.90
21033;DHT22;10675;47.976;7.824;2024-03-25T00:45:43;6.10;99.90
21033;DHT22;10675;47.976;7.824;2024-03-25T00:48:09;6.10;99.90
21033;DHT22;10675;47.976;7.824;2024-03-25T00:50:34;6.10;99.90
21033;DHT22;10675;47.976;7.824;2024-03-25T00:53:00;6.20;99.90
21033;DHT22;10675;47.976;7.824;2024-03-25T00:55:25;6.20;99.90
21033;DHT22;10675;47.976;7.824;2024-03-25T00:57:51;6.20;99.90
21033;DHT22;10675;47.976;7.824;2024-03-25T01:00:17;6.20;99.90
21033;DHT22;10675;47.976;7.824;2024-03-25T01:02:43;6.10;99.90
21033;DHT22;10675;47.976;7.824;2024-03-25T01:05:09;6.10;99.90
21033;DHT22;10675;47.976;7.824;2024-03-25T01:07:34;6.10;99.90
21033;DHT22;10675;47.976;7.824;2024-03-25T01:10:00;6.00;99.90
21033;DHT22;10675;47.976;7.824;2024-03-25T01:12:26;6.00;99.90
21033;DHT22;10675;47.976;7.824;2024-03-25T01:14:52;6.00;99.90
21033;DHT22;10675;47.976;7.824;2024-03-25T01:17:17;6.00;99.90
21033;DHT22;10675;47.976;7.824;2024-03-25T01:19:43;6.00;99.90
21033;DHT22;10675;47.976;7.824;2024-03-25T01:22:08;6.00;99.90
21033;DHT22;10675;47.976;7.824;2024-03-25T01:24:34;5.90;99.90
21033;DHT22;10675;47.976;7.824;2024-03-25T01:27:00;6.00;99.90
21033;DHT22;10675;47.976;7.824;2024-03-25T01:29:26;5.90;99.90
21033;DHT22;10675;47.976;7.824;2024-03-25T01:31:51;5.90;99.90
21033;DHT22;10675;47.976;7.824;2024-03-25T01:34:17;5.90;99.90
21033;DHT22;10675;47.976;7.824;2024-03-25T01:36:42;5.90;99.90
21033;DHT22;10675;47.976;7.824;2024-03-25T01:39:08;6.00;99.90
21033;DHT22;10675;47.976;7.824;2024-03-25T01:41:34;6.00;99.90
21033;DHT22;10675;47.976;7.824;2024-03-25T01:44:00;6.00;99.90
21033;DHT22;10675;47.976;7.824;2024-03-25T01:46:27;5.80;99.90
21033;DHT22;10675;47.976;7.824;2024-03-25T01:48:53;5.80;99.90
21033;DHT22;10675;47.976;7.824;2024-03-25T01:51:20;5.70;99.90
21033;DHT22;10675;47.976;7.824;2024-03-25T01:53:47;5.70;99.90
21033;DHT22;10675;47.976;7.824;2024-03-25T01:56:14;5.60;99.90
21033;DHT22;10675;47.976;7.824;2024-03-25T01:58:40;5.50;99.90
21033;DHT22;10675;47.976;7.824;2024-03-25T02:01:06;5.60;99.90
21033;DHT22;10675;47.976;7.824;2024-03-25T02:03:34;5.50;99.90
21033;DHT22;10675;47.976;7.824;2024-03-25T02:06:03;5.40;99.90
21033;DHT22;10675;47.976;7.824;2024-03-25T02:08:33;5.40;99.90
21033;DHT22;10675;47.976;7.824;2024-03-25T02:10:59;5.40;99.90
21033;DHT22;10675;47.976;7.824;2024-03-25T02:13:25;5.50;99.90
21033;DHT22;10675;47.976;7.824;2024-03-25T02:15:50;5.50;99.90
21033;DHT22;10675;47.976;7.824;2024-03-25T02:18:20;5.60;99.90
21033;DHT22;10675;47.976;7.824;2024-03-25T02:20:45;5.50;99.90
21033;DHT22;10675;47.976;7.824;2024-03-25T02:23:12;5.50;99.90
21033;DHT22;10675;47.976;7.824;2024-03-25T02:25:39;5.50;99.90
21033;DHT22;10675;47.976;7.824;2024-03-25T02:28:05;5.60;99.90
21033;DHT22;10675;47.976;7.824;2024-03-25T02:30:31;5.50;99.90
21033;DHT22;10675;47.976;7.824;2024-03-25T02:32:57;5.50;99.90
21033;DHT22;10675;47.976;7.824;2024-03-25T02:35:24;5.40;99.90
21033;DHT22;10675;47.976;7.824;2024-03-25T02:37:51;5.40;99.90
21033;DHT22;10675;47.976;7.824;2024-03-25T02:40:17;5.40;99.90
21033;DHT22;10675;47.976;7.824;2024-03-25T02:42:43;5.40;99.90
21033;DHT22;10675;47.976;7.824;2024-03-25T02:45:09;5.30;99.90
21033;DHT22;10675;47.976;7.824;2024-03-25T02:47:35;5.30;99.90
21033;DHT22;10675;47.976;7.824;2024-03-25T02:50:01;5.30;99.90
21033;DHT22;10675;47.976;7.824;2024-03-25T02:52:27;5.20;99.90
21033;DHT22;10675;47.976;7.824;2024-03-25T02:54:52;5.20;99.90
21033;DHT22;10675;47.976;7.824;2024-03-25T02:57:20;5.20;99.90
21033;DHT22;10675;47.976;7.824;2024-03-25T02:59:45;5.20;99.90
21033;DHT22;10675;47.976;7.824;2024-03-25T03:02:11;5.20;99.90
21033;DHT22;10675;47.976;7.824;2024-03-25T03:04:36;5.10;99.90
21033;DHT22;10675;47.976;7.824;2024-03-25T03:07:02;5.10;99.90
21033;DHT22;10675;47.976;7.824;2024-03-25T03:09:27;5.10;99.90
21033;DHT22;10675;47.976;7.824;2024-03-25T03:11:53;5.10;99.90
21033;DHT22;10675;47.976;7.824;2024-03-25T03:14:18;5.10;99.90
21033;DHT22;10675;47.976;7.824;2024-03-25T03:16:44;5.10;99.90
21033;DHT22;10675;47.976;7.824;2024-03-25T03:19:09;5.00;99.90
21033;DHT22;10675;47.976;7.824;2024-03-25T03:21:35;5.00;99.90
21033;DHT22;10675;47.976;7.824;2024-03-25T03:24:02;4.90;99.90
21033;DHT22;10675;47.976;7.824;2024-03-25T03:26:27;4.90;99.90
21033;DHT22;10675;47.976;7.824;2024-03-25T03:28:57;4.80;99.90
21033;DHT22;10675;47.976;7.824;2024-03-25T03:31:22;4.80;99.90
21033;DHT22;10675;47.976;7.824;2024-03-25T03:33:49;4.80;99.90
21033;DHT22;10675;47.976;7.824;2024-03-25T03:36:22;4.80;99.90
21033;DHT22;10675;47.976;7.824;2024-03-25T03:38:50;4.80;99.90
21033;DHT22;10675;47.976;7.824;2024-03-25T03:41:16;4.90;99.90
21033;DHT22;10675;47.976;7.824;2024-03-25T03:43:42;4.60;99.90
21033;DHT22;10675;47.976;7.824;2024-03-25T03:46:08;4.60;99.90
21033;DHT22;10675;47.976;7.824;2024-03-25T03:48:33;4.50;99.90
21033;DHT22;10675;47.976;7.824;2024-03-25T03:50:59;4.50;99.90
21033;DHT22;10675;47.976;7.824;2024-03-25T03:53:24;4.40;99.90
21033;DHT22;10675;47.976;7.824;2024-03-25T03:55:58;4.50;99.90
21033;DHT22;10675;47.976;7.824;2024-03-25T03:58:24;4.50;99.90
21033;DHT22;10675;47.976;7.824;2024-03-25T04:00:50;4.40;99.90
21033;DHT22;10675;47.976;7.824;2024-03-25T04:03:16;4.40;99.90
21033;DHT22;10675;47.976;7.824;2024-03-25T04:05:41;4.40;99.90
21033;DHT22;10675;47.976;7.824;2024-03-25T04:08:07;4.30;99.90
21033;DHT22;10675;47.976;7.824;2024-03-25T04:10:34;4.30;99.90
21033;DHT22;10675;47.976;7.824;2024-03-25T04:12:59;4.20;99.90
21033;DHT22;10675;47.976;7.824;2024-03-25T04:15:25;4.30;99.90
21033;DHT22;10675;47.976;7.824;2024-03-25T04:17:51;4.20;99.90
21033;DHT22;10675;47.976;7.824;2024-03-25T04:20:17;4.20;99.90
21033;DHT22;10675;47.976;7.824;2024-03-25T04:22:44;4.20;99.90
21033;DHT22;10675;47.976;7.824;2024-03-25T04:25:10;4.10;99.90
21033;DHT22;10675;47.976;7.824;2024-03-25T04:27:42;4.10;99.90
21033;DHT22;10675;47.976;7.824;2024-03-25T04:30:08;4.10;99.90
21033;DHT22;10675;47.976;7.824;2024-03-25T04:32:35;4.10;99.90
21033;DHT22;10675;47.976;7.824;2024-03-25T04:35:01;4.20;99.90
21033;DHT22;10675;47.976;7.824;2024-03-25T04:37:27;4.20;99.90
21033;DHT22;10675;47.976;7.824;2024-03-25T04:39:53;4.10;99.90
21033;DHT22;10675;47.976;7.824;2024-03-25T04:42:19;4.10;99.90
21033;DHT22;10675;47.976;7.824;2024-03-25T04:44:45;4.00;99.90
21033;DHT22;10675;47.976;7.824;2024-03-25T04:47:11;3.90;99.90
21033;DHT22;10675;47.976;7.824;2024-03-25T04:49:37;3.80;99.90
21033;DHT22;10675;47.976;7.824;2024-03-25T04:52:03;3.80;99.90
21033;DHT22;10675;47.976;7.824;2024-03-25T04:54:29;3.80;99.90
21033;DHT22;10675;47.976;7.824;2024-03-25T04:56:55;3.80;99.90
21033;DHT22;10675;47.976;7.824;2024-03-25T04:59:21;3.80;99.90
21033;DHT22;10675;47.976;7.824;2024-03-25T05:01:46;3.70;99.90
21033;DHT22;10675;47.976;7.824;2024-03-25T05:04:12;3.60;99.90
21033;DHT22;10675;47.976;7.824;2024-03-25T05:06:37;3.70;99.90
21033;DHT22;10675;47.976;7.824;2024-03-25T05:09:03;3.60;99.90
21033;DHT22;10675;47.976;7.824;2024-03-25T05:11:28;3.70;99.90
21033;DHT22;10675;47.976;7.824;2024-03-25T05:13:54;3.60;99.90
21033;DHT22;10675;47.976;7.824;2024-03-25T05:16:19;3.50;99.90
21033;DHT22;10675;47.976;7.824;2024-03-25T05:18:45;3.40;99.90
21033;DHT22;10675;47.976;7.824;2024-03-25T05:21:10;3.40;99.90
21033;DHT22;10675;47.976;7.824;2024-03-25T05:23:36;3.30;99.90
21033;DHT22;10675;47.976;7.824;2024-03-25T05:26:01;3.30;99.90
21033;DHT22;10675;47.976;7.824;2024-03-25T05:28:27;3.30;99.90
21033;DHT22;10675;47.976;7.824;2024-03-25T05:30:52;3.30;99.90
21033;DHT22;10675;47.976;7.824;2024-03-25T05:33:18;3.30;99.90
21033;DHT22;10675;47.976;7.824;2024-03-25T05:35:43;3.30;99.90
21033;DHT22;10675;47.976;7.824;2024-03-25T05:38:09;3.30;99.90
21033;DHT22;10675;47.976;7.824;2024-03-25T05:40:34;3.30;99.90
21033;DHT22;10675;47.976;7.824;2024-03-25T05:43:00;3.30;99.90
21033;DHT22;10675;47.976;7.824;2024-03-25T05:45:25;3.20;99.90
21033;DHT22;10675;47.976;7.824;2024-03-25T05:47:51;3.30;99.90
21033;DHT22;10675;47.976;7.824;2024-03-25T05:50:16;3.30;99.90
21033;DHT22;10675;47.976;7.824;2024-03-25T05:52:42;3.20;99.90
21033;DHT22;10675;47.976;7.824;2024-03-25T05:55:08;3.20;99.90
21033;DHT22;10675;47.976;7.824;2024-03-25T05:57:35;3.20;99.90
21033;DHT22;10675;47.976;7.824;2024-03-25T06:00:01;3.30;99.90
21033;DHT22;10675;47.976;7.824;2024-03-25T06:02:27;3.50;99.90
21033;DHT22;10675;47.976;7.824;2024-03-25T06:04:53;3.20;99.90
21033;DHT22;10675;47.976;7.824;2024-03-25T06:07:18;3.20;99.90
21033;DHT22;10675;47.976;7.824;2024-03-25T06:09:44;3.40;99.90
21033;DHT22;10675;47.976;7.824;2024-03-25T06:12:09;3.40;99.90
21033;DHT22;10675;47.976;7.824;2024-03-25T06:14:35;3.50;99.90
21033;DHT22;10675;47.976;7.824;2024-03-25T06:17:01;3.60;99.90
21033;DHT22;10675;47.976;7.824;2024-03-25T06:19:26;3.80;99.90
21033;DHT22;10675;47.976;7.824;2024-03-25T06:21:51;3.90;99.90
21033;DHT22;10675;47.976;7.824;2024-03-25T06:24:17;4.00;99.90
21033;DHT22;10675;47.976;7.824;2024-03-25T06:26:42;4.10;99.90
21033;DHT22;10675;47.976;7.824;2024-03-25T06:29:08;4.20;99.90
21033;DHT22;10675;47.976;7.824;2024-03-25T06:31:33;4.30;99.90
21033;DHT22;10675;47.976;7.824;2024-03-25T06:34:22;4.40;99.90
21033;DHT22;10675;47.976;7.824;2024-03-25T06:36:48;4.60;99.90
21033;DHT22;10675;47.976;7.824;2024-03-25T06:39:14;4.70;99.90
21033;DHT22;10675;47.976;7.824;2024-03-25T06:41:40;4.80;99.90
21033;DHT22;10675;47.976;7.824;2024-03-25T06:44:06;4.90;99.90
21033;DHT22;10675;47.976;7.824;2024-03-25T06:46:32;5.00;99.90
21033;DHT22;10675;47.976;7.824;2024-03-25T06:48:58;5.00;99.90
21033;DHT22;10675;47.976;7.824;2024-03-25T06:51:23;5.30;99.90
21033;DHT22;10675;47.976;7.824;2024-03-25T06:53:49;5.50;99.90
21033;DHT22;10675;47.976;7.824;2024-03-25T06:56:14;5.60;99.90
21033;DHT22;10675;47.976;7.824;2024-03-25T06:58:40;5.70;99.90
21033;DHT22;10675;47.976;7.824;2024-03-25T07:01:08;5.90;99.90
21033;DHT22;10675;47.976;7.824;2024-03-25T07:03:34;5.50;99.90
21033;DHT22;10675;47.976;7.824;2024-03-25T07:06:01;6.10;99.90
21033;DHT22;10675;47.976;7.824;2024-03-25T07:08:27;6.20;99.90
21033;DHT22;10675;47.976;7.824;2024-03-25T07:10:53;6.30;99.90
21033;DHT22;10675;47.976;7.824;2024-03-25T07:13:19;6.40;99.90
21033;DHT22;10675;47.976;7.824;2024-03-25T07:15:45;6.60;99.90
21033;DHT22;10675;47.976;7.824;2024-03-25T07:18:11;6.70;99.90
21033;DHT22;10675;47.976;7.824;2024-03-25T07:20:41;6.80;99.90
21033;DHT22;10675;47.976;7.824;2024-03-25T07:23:08;6.90;99.90
21033;DHT22;10675;47.976;7.824;2024-03-25T07:25:34;7.00;99.90
21033;DHT22;10675;47.976;7.824;2024-03-25T07:28:00;7.00;99.90
21033;DHT22;10675;47.976;7.824;2024-03-25T07:30:25;7.10;99.90
21033;DHT22;10675;47.976;7.824;2024-03-25T07:32:58;7.20;99.90
21033;DHT22;10675;47.976;7.824;2024-03-25T07:35:23;7.40;99.90
21033;DHT22;10675;47.976;7.824;2024-03-25T07:37:49;7.40;99.90
21033;DHT22;10675;47.976;7.824;2024-03-25T07:40:17;7.50;99.90
21033;DHT22;10675;47.976;7.824;2024-03-25T07:42:42;7.70;99.90
21033;DHT22;10675;47.976;7.824;2024-03-25T07:45:08;7.80;99.90
21033;DHT22;10675;47.976;7.824;2024-03-25T07:47:34;7.90;99.90
21033;DHT22;10675;47.976;7.824;2024-03-25T07:50:00;8.10;99.90
21033;DHT22;10675;47.976;7.824;2024-03-25T07:52:26;8.30;99.90
21033;DHT22;10675;47.976;7.824;2024-03-25T07:54:53;8.40;99.90
21033;DHT22;10675;47.976;7.824;2024-03-25T07:57:18;8.50;99.90
21033;DHT22;10675;47.976;7.824;2024-03-25T07:59:45;8.70;99.90
21033;DHT22;10675;47.976;7.824;2024-03-25T08:02:10;8.80;98.80
21033;DHT22;10675;47.976;7.824;2024-03-25T08:04:36;9.00;98.00
21033;DHT22;10675;47.976;7.824;2024-03-25T08:07:01;9.10;96.20
21033;DHT22;10675;47.976;7.824;2024-03-25T08:09:28;9.10;96.20
21033;DHT22;10675;47.976;7.824;2024-03-25T08:11:53;9.30;96.20
21033;DHT22;10675;47.976;7.824;2024-03-25T08:14:19;9.40;95.80
21033;DHT22;10675;47.976;7.824;2024-03-25T08:16:44;9.40;95.20
21033;DHT22;10675;47.976;7.824;2024-03-25T08:19:10;9.60;95.30
21033;DHT22;10675;47.976;7.824;2024-03-25T08:21:35;9.70;94.80
21033;DHT22;10675;47.976;7.824;2024-03-25T08:24:01;9.70;94.00
21033;DHT22;10675;47.976;7.824;2024-03-25T08:26:26;9.80;94.10
21033;DHT22;10675;47.976;7.824;2024-03-25T08:28:52;9.90;94.10
21033;DHT22;10675;47.976;7.824;2024-03-25T08:31:17;9.80;92.90
21033;DHT22;10675;47.976;7.824;2024-03-25T08:33:43;10.00;92.10
21033;DHT22;10675;47.976;7.824;2024-03-25T08:36:09;9.80;90.70
21033;DHT22;10675;47.976;7.824;2024-03-25T08:38:34;9.90;88.50
21033;DHT22;10675;47.976;7.824;2024-03-25T08:41:00;9.70;88.70
21033;DHT22;10675;47.976;7.824;2024-03-25T08:43:26;10.00;86.90
21033;DHT22;10675;47.976;7.824;2024-03-25T08:45:51;10.20;86.40
21033;DHT22;10675;47.976;7.824;2024-03-25T08:48:17;10.40;84.20
21033;DHT22;10675;47.976;7.824;2024-03-25T08:50:42;10.50;82.60
21033;DHT22;10675;47.976;7.824;2024-03-25T08:53:08;10.80;82.20
21033;DHT22;10675;47.976;7.824;2024-03-25T08:55:33;10.80;78.70
21033;DHT22;10675;47.976;7.824;2024-03-25T08:57:59;11.00;77.60
21033;DHT22;10675;47.976;7.824;2024-03-25T09:00:25;11.10;76.50
21033;DHT22;10675;47.976;7.824;2024-03-25T09:02:51;11.10;72.40
21033;DHT22;10675;47.976;7.824;2024-03-25T09:05:16;11.00;72.40
21033;DHT22;10675;47.976;7.824;2024-03-25T09:07:49;11.00;71.40
21033;DHT22;10675;47.976;7.824;2024-03-25T09:10:17;11.20;69.50
21033;DHT22;10675;47.976;7.824;2024-03-25T09:13:01;11.10;68.60
21033;DHT22;10675;47.976;7.824;2024-03-25T09:15:28;11.40;65.60
21033;DHT22;10675;47.976;7.824;2024-03-25T09:17:54;11.20;62.90
21033;DHT22;10675;47.976;7.824;2024-03-25T09:20:19;11.40;60.70
21033;DHT22;10675;47.976;7.824;2024-03-25T09:22:46;11.40;59.70
21033;DHT22;10675;47.976;7.824;2024-03-25T09:25:14;11.40;59.50
21033;DHT22;10675;47.976;7.824;2024-03-25T09:27:40;11.30;58.50
21033;DHT22;10675;47.976;7.824;2024-03-25T09:30:06;11.00;57.90
21033;DHT22;10675;47.976;7.824;2024-03-25T09:32:34;11.40;59.60
21033;DHT22;10675;47.976;7.824;2024-03-25T09:35:00;11.40;58.50
21033;DHT22;10675;47.976;7.824;2024-03-25T09:37:26;11.50;59.00
21033;DHT22;10675;47.976;7.824;2024-03-25T09:39:52;11.30;56.90
21033;DHT22;10675;47.976;7.824;2024-03-25T09:42:27;11.60;56.60
21033;DHT22;10675;47.976;7.824;2024-03-25T09:44:54;11.70;56.40
21033;DHT22;10675;47.976;7.824;2024-03-25T09:47:23;11.90;56.20
21033;DHT22;10675;47.976;7.824;2024-03-25T09:49:49;12.00;54.60
21033;DHT22;10675;47.976;7.824;2024-03-25T09:52:16;12.10;55.20
21033;DHT22;10675;47.976;7.824;2024-03-25T09:54:42;12.20;55.00
21033;DHT22;10675;47.976;7.824;2024-03-25T09:57:08;12.20;56.10
21033;DHT22;10675;47.976;7.824;2024-03-25T09:59:34;12.40;53.40
21033;DHT22;10675;47.976;7.824;2024-03-25T10:02:00;12.20;53.60
21033;DHT22;10675;47.976;7.824;2024-03-25T10:04:26;12.40;51.80
21033;DHT22;10675;47.976;7.824;2024-03-25T10:06:51;12.50;51.90
21033;DHT22;10675;47.976;7.824;2024-03-25T10:09:21;12.60;51.90
21033;DHT22;10675;47.976;7.824;2024-03-25T10:11:49;12.80;51.30
21033;DHT22;10675;47.976;7.824;2024-03-25T10:14:18;13.00;50.30
21033;DHT22;10675;47.976;7.824;2024-03-25T10:16:49;12.90;49.90
21033;DHT22;10675;47.976;7.824;2024-03-25T10:19:17;12.80;50.80
21033;DHT22;10675;47.976;7.824;2024-03-25T10:21:42;12.70;51.50
21033;DHT22;10675;47.976;7.824;2024-03-25T10:24:08;12.90;50.40
21033;DHT22;10675;47.976;7.824;2024-03-25T10:26:33;13.00;50.00
21033;DHT22;10675;47.976;7.824;2024-03-25T10:29:07;13.10;51.80
21033;DHT22;10675;47.976;7.824;2024-03-25T10:31:33;13.20;53.10
21033;DHT22;10675;47.976;7.824;2024-03-25T10:34:00;13.30;50.70
21033;DHT22;10675;47.976;7.824;2024-03-25T10:36:26;13.10;47.50
21033;DHT22;10675;47.976;7.824;2024-03-25T10:38:57;12.90;49.40
21033;DHT22;10675;47.976;7.824;2024-03-25T10:41:27;13.20;52.60
21033;DHT22;10675;47.976;7.824;2024-03-25T10:43:54;13.40;50.20
21033;DHT22;10675;47.976;7.824;2024-03-25T10:46:22;13.60;49.50
21033;DHT22;10675;47.976;7.824;2024-03-25T10:52:00;13.70;51.00
21033;DHT22;10675;47.976;7.824;2024-03-25T10:54:28;13.80;51.70
21033;DHT22;10675;47.976;7.824;2024-03-25T10:56:55;13.80;48.40
21033;DHT22;10675;47.976;7.824;2024-03-25T10:59:22;13.70;48.30
21033;DHT22;10675;47.976;7.824;2024-03-25T11:01:49;13.60;47.50
21033;DHT22;10675;47.976;7.824;2024-03-25T11:04:15;13.70;48.70
21033;DHT22;10675;47.976;7.824;2024-03-25T11:06:40;13.80;48.30
21033;DHT22;10675;47.976;7.824;2024-03-25T11:09:06;13.90;49.10
21033;DHT22;10675;47.976;7.824;2024-03-25T11:11:33;13.80;49.40
21033;DHT22;10675;47.976;7.824;2024-03-25T11:13:59;13.60;48.00
21033;DHT22;10675;47.976;7.824;2024-03-25T11:16:31;13.70;51.00
21033;DHT22;10675;47.976;7.824;2024-03-25T11:19:03;14.00;51.90
21033;DHT22;10675;47.976;7.824;2024-03-25T11:21:29;14.10;49.70
21033;DHT22;10675;47.976;7.824;2024-03-25T11:23:54;14.20;49.80
21033;DHT22;10675;47.976;7.824;2024-03-25T11:26:22;14.40;50.30
21033;DHT22;10675;47.976;7.824;2024-03-25T11:28:49;14.20;48.10
21033;DHT22;10675;47.976;7.824;2024-03-25T11:31:15;14.40;50.40
21033;DHT22;10675;47.976;7.824;2024-03-25T11:33:41;14.60;50.10
21033;DHT22;10675;47.976;7.824;2024-03-25T11:36:09;14.50;47.70
21033;DHT22;10675;47.976;7.824;2024-03-25T11:38:34;14.50;47.60
21033;DHT22;10675;47.976;7.824;2024-03-25T11:41:00;14.30;48.70
21033;DHT22;10675;47.976;7.824;2024-03-25T11:43:26;14.40;48.70
21033;DHT22;10675;47.976;7.824;2024-03-25T11:45:52;14.50;49.80
21033;DHT22;10675;47.976;7.824;2024-03-25T11:48:19;14.40;47.40
21033;DHT22;10675;47.976;7.824;2024-03-25T11:50:46;14.40;47.90
21033;DHT22;10675;47.976;7.824;2024-03-25T11:53:15;14.40;48.20
21033;DHT22;10675;47.976;7.824;2024-03-25T11:55:45;14.20;48.60
21033;DHT22;10675;47.976;7.824;2024-03-25T11:58:11;14.10;47.30
21033;DHT22;10675;47.976;7.824;2024-03-25T12:00:45;14.30;50.10
21033;DHT22;10675;47.976;7.824;2024-03-25T12:03:13;14.70;50.70
21033;DHT22;10675;47.976;7.824;2024-03-25T12:05:40;15.00;50.30
21033;DHT22;10675;47.976;7.824;2024-03-25T12:08:08;15.10;49.40
21033;DHT22;10675;47.976;7.824;2024-03-25T12:10:36;15.20;50.30
21033;DHT22;10675;47.976;7.824;2024-03-25T12:13:20;15.00;47.40
21033;DHT22;10675;47.976;7.824;2024-03-25T12:15:46;15.20;48.70
21033;DHT22;10675;47.976;7.824;2024-03-25T12:18:16;15.40;49.60
21033;DHT22;10675;47.976;7.824;2024-03-25T12:20:44;15.50;47.10
21033;DHT22;10675;47.976;7.824;2024-03-25T12:23:10;15.30;46.10
21033;DHT22;10675;47.976;7.824;2024-03-25T12:25:35;15.50;48.00
21033;DHT22;10675;47.976;7.824;2024-03-25T12:28:01;15.60;46.90
21033;DHT22;10675;47.976;7.824;2024-03-25T12:30:27;15.50;47.30
21033;DHT22;10675;47.976;7.824;2024-03-25T12:32:54;15.00;47.10
21033;DHT22;10675;47.976;7.824;2024-03-25T12:35:20;15.50;45.50
21033;DHT22;10675;47.976;7.824;2024-03-25T12:37:46;15.30;45.90
21033;DHT22;10675;47.976;7.824;2024-03-25T12:40:28;15.40;46.70
21033;DHT22;10675;47.976;7.824;2024-03-25T12:42:57;15.30;45.30
21033;DHT22;10675;47.976;7.824;2024-03-25T12:45:24;15.50;48.40
21033;DHT22;10675;47.976;7.824;2024-03-25T12:47:52;15.80;47.80
21033;DHT22;10675;47.976;7.824;2024-03-25T12:50:18;15.80;46.90
21033;DHT22;10675;47.976;7.824;2024-03-25T12:52:49;15.70;44.30
21033;DHT22;10675;47.976;7.824;2024-03-25T12:55:14;15.80;46.60
21033;DHT22;10675;47.976;7.824;2024-03-25T12:57:40;15.80;45.60
21033;DHT22;10675;47.976;7.824;2024-03-25T13:00:07;15.80;46.00
21033;DHT22;10675;47.976;7.824;2024-03-25T13:02:33;15.90;45.40
21033;DHT22;10675;47.976;7.824;2024-03-25T13:04:59;16.10;48.00
21033;DHT22;10675;47.976;7.824;2024-03-25T13:07:24;16.30;45.10
21033;DHT22;10675;47.976;7.824;2024-03-25T13:09:50;16.40;44.40
21033;DHT22;10675;47.976;7.824;2024-03-25T13:12:15;16.60;45.70
21033;DHT22;10675;47.976;7.824;2024-03-25T13:14:41;16.60;46.20
21033;DHT22;10675;47.976;7.824;2024-03-25T13:17:06;16.60;45.30
21033;DHT22;10675;47.976;7.824;2024-03-25T13:19:32;17.10;48.40
21033;DHT22;10675;47.976;7.824;2024-03-25T13:21:57;17.20;49.70
21033;DHT22;10675;47.976;7.824;2024-03-25T13:24:23;17.30;47.80
21033;DHT22;10675;47.976;7.824;2024-03-25T13:26:48;17.60;41.90
21033;DHT22;10675;47.976;7.824;2024-03-25T13:29:14;17.80;43.00
21033;DHT22;10675;47.976;7.824;2024-03-25T13:31:40;17.70;40.30
21033;DHT22;10675;47.976;7.824;2024-03-25T13:34:05;17.80;42.00
21033;DHT22;10675;47.976;7.824;2024-03-25T13:36:31;18.00;40.70
21033;DHT22;10675;47.976;7.824;2024-03-25T13:38:57;18.30;38.70
21033;DHT22;10675;47.976;7.824;2024-03-25T13:41:23;18.20;37.50
21033;DHT22;10675;47.976;7.824;2024-03-25T13:43:49;17.80;37.10
21033;DHT22;10675;47.976;7.824;2024-03-25T13:46:15;17.80;36.60
21033;DHT22;10675;47.976;7.824;2024-03-25T13:48:40;18.20;37.30
21033;DHT22;10675;47.976;7.824;2024-03-25T13:51:06;18.60;35.60
21033;DHT22;10675;47.976;7.824;2024-03-25T13:53:31;18.70;35.50
21033;DHT22;10675;47.976;7.824;2024-03-25T13:55:57;18.70;34.70
21033;DHT22;10675;47.976;7.824;2024-03-25T13:58:23;18.80;34.30
21033;DHT22;10675;47.976;7.824;2024-03-25T14:00:48;18.90;34.70
21033;DHT22;10675;47.976;7.824;2024-03-25T14:03:15;19.30;33.30
21033;DHT22;10675;47.976;7.824;2024-03-25T14:05:41;19.40;33.50
21033;DHT22;10675;47.976;7.824;2024-03-25T14:08:06;19.30;32.50
21033;DHT22;10675;47.976;7.824;2024-03-25T14:10:32;19.20;32.00
21033;DHT22;10675;47.976;7.824;2024-03-25T14:12:57;19.20;33.20
21033;DHT22;10675;47.976;7.824;2024-03-25T14:15:23;19.40;33.60
21033;DHT22;10675;47.976;7.824;2024-03-25T14:17:48;19.50;33.30
21033;DHT22;10675;47.976;7.824;2024-03-25T14:20:14;19.60;34.10
21033;DHT22;10675;47.976;7.824;2024-03-25T14:22:39;19.80;33.80
21033;DHT22;10675;47.976;7.824;2024-03-25T14:25:05;20.20;33.90
21033;DHT22;10675;47.976;7.824;2024-03-25T14:29:57;20.40;75.60
21033;DHT22;10675;47.976;7.824;2024-03-25T14:32:23;19.70;51.10
21033;DHT22;10675;47.976;7.824;2024-03-25T14:34:49;19.10;45.10
21033;DHT22;10675;47.976;7.824;2024-03-25T14:37:15;19.30;47.50
21033;DHT22;10675;47.976;7.824;2024-03-25T14:39:41;19.60;44.50
21033;DHT22;10675;47.976;7.824;2024-03-25T14:42:10;20.40;47.90
21033;DHT22;10675;47.976;7.824;2024-03-25T14:44:36;20.30;44.70
21033;DHT22;10675;47.976;7.824;2024-03-25T14:47:02;20.50;45.70
21033;DHT22;10675;47.976;7.824;2024-03-25T14:49:27;20.10;44.00
21033;DHT22;10675;47.976;7.824;2024-03-25T14:51:53;19.10;42.60
21033;DHT22;10675;47.976;7.824;2024-03-25T14:54:19;19.20;45.90
21033;DHT22;10675;47.976;7.824;2024-03-25T14:56:45;19.70;45.30
21033;DHT22;10675;47.976;7.824;2024-03-25T14:59:10;19.40;44.70
21033;DHT22;10675;47.976;7.824;2024-03-25T15:01:36;18.90;45.10
21033;DHT22;10675;47.976;7.824;2024-03-25T15:04:03;19.00;45.30
21033;DHT22;10675;47.976;7.824;2024-03-25T15:06:30;19.10;46.30
21033;DHT22;10675;47.976;7.824;2024-03-25T15:08:59;19.00;44.80
21033;DHT22;10675;47.976;7.824;2024-03-25T15:11:25;18.40;44.10
21033;DHT22;10675;47.976;7.824;2024-03-25T15:13:51;17.60;45.40
21033;DHT22;10675;47.976;7.824;2024-03-25T15:16:17;16.90;45.90
21033;DHT22;10675;47.976;7.824;2024-03-25T15:18:43;16.70;48.00
21033;DHT22;10675;47.976;7.824;2024-03-25T15:21:08;16.80;47.20
21033;DHT22;10675;47.976;7.824;2024-03-25T15:23:34;16.40;46.90
21033;DHT22;10675;47.976;7.824;2024-03-25T15:25:59;16.80;46.50
21033;DHT22;10675;47.976;7.824;2024-03-25T15:28:25;17.10;45.50
21033;DHT22;10675;47.976;7.824;2024-03-25T15:30:52;16.70;44.00
21033;DHT22;10675;47.976;7.824;2024-03-25T15:33:18;16.90;43.70
21033;DHT22;10675;47.976;7.824;2024-03-25T15:35:44;16.90;44.00
21033;DHT22;10675;47.976;7.824;2024-03-25T15:38:09;16.80;43.50
21033;DHT22;10675;47.976;7.824;2024-03-25T15:40:36;16.10;44.40